sensor_id;sensor_type;location;lat;lon;timestamp;P1;durP1;ratioP1;P2;durP2;ratioP2
8946;SDS011;4508;48.790;9.028;2022-09-01T00:02:00;10.70;;;9.60;;
8946;SDS011;4508;48.790;9.028;2022-09-01T00:04:33;10.65;;;9.55;;
8946;SDS011;4508;48.790;9.028;2022-09-01T00:07:01;10.80;;;9.70;;
8946;SDS011;4508;48.790;9.028;2022-09-01T00:09:27;10.90;;;9.80;;
8946;SDS011;4508;48.790;9.028;2022-09-01T00:11:54;10.60;;;9.55;;
8946;SDS011;4508;48.790;9.028;2022-09-01T00:14:24;10.38;;;9.40;;
8946;SDS011;4508;48.790;9.028;2022-09-01T00:16:53;11.15;;;10.07;;
8946;SDS011;4508;48.790;9.028;2022-09-01T00:19:20;10.75;;;9.70;;
8946;SDS011;4508;48.790;9.028;2022-09-01T00:21:47;10.25;;;9.32;;
8946;SDS011;4508;48.790;9.028;2022-09-01T00:24:15;10.97;;;9.97;;
8946;SDS011;4508;48.790;9.028;2022-09-01T00:26:43;10.93;;;9.88;;
8946;SDS011;4508;48.790;9.028;2022-09-01T00:29:10;11.13;;;9.90;;
8946;SDS011;4508;48.790;9.028;2022-09-01T00:31:38;10.75;;;9.65;;
8946;SDS011;4508;48.790;9.028;2022-09-01T00:34:06;11.07;;;9.90;;
8946;SDS011;4508;48.790;9.028;2022-09-01T00:36:33;11.40;;;9.63;;
8946;SDS011;4508;48.790;9.028;2022-09-01T00:38:59;10.88;;;9.88;;
8946;SDS011;4508;48.790;9.028;2022-09-01T00:41:31;10.87;;;9.90;;
8946;SDS011;4508;48.790;9.028;2022-09-01T00:44:00;12.07;;;10.57;;
8946;SDS011;4508;48.790;9.028;2022-09-01T00:46:30;11.70;;;10.50;;
8946;SDS011;4508;48.790;9.028;2022-09-01T00:49:00;11.13;;;10.13;;
8946;SDS011;4508;48.790;9.028;2022-09-01T00:51:30;11.23;;;10.18;;
8946;SDS011;4508;48.790;9.028;2022-09-01T00:53:59;11.68;;;10.63;;
8946;SDS011;4508;48.790;9.028;2022-09-01T00:56:27;12.00;;;10.90;;
8946;SDS011;4508;48.790;9.028;2022-09-01T00:58:57;11.93;;;10.80;;
8946;SDS011;4508;48.790;9.028;2022-09-01T01:01:25;11.65;;;10.65;;
8946;SDS011;4508;48.790;9.028;2022-09-01T01:03:52;11.17;;;10.17;;
8946;SDS011;4508;48.790;9.028;2022-09-01T01:06:20;11.85;;;10.82;;
8946;SDS011;4508;48.790;9.028;2022-09-01T01:08:52;12.32;;;11.13;;
8946;SDS011;4508;48.790;9.028;2022-09-01T01:11:23;12.52;;;11.43;;
8946;SDS011;4508;48.790;9.028;2022-09-01T01:13:55;12.15;;;11.15;;
8946;SDS011;4508;48.790;9.028;2022-09-01T01:16:25;12.60;;;11.50;;
8946;SDS011;4508;48.790;9.028;2022-09-01T01:18:53;12.40;;;11.20;;
8946;SDS011;4508;48.790;9.028;2022-09-01T01:21:22;12.35;;;11.15;;
8946;SDS011;4508;48.790;9.028;2022-09-01T01:24:23;11.50;;;10.40;;
8946;SDS011;4508;48.790;9.028;2022-09-01T01:26:50;12.43;;;11.20;;
8946;SDS011;4508;48.790;9.028;2022-09-01T01:29:19;12.75;;;11.65;;
8946;SDS011;4508;48.790;9.028;2022-09-01T01:31:46;15.27;;;13.98;;
8946;SDS011;4508;48.790;9.028;2022-09-01T01:34:17;15.43;;;14.02;;
8946;SDS011;4508;48.790;9.028;2022-09-01T01:36:44;15.27;;;13.88;;
8946;SDS011;4508;48.790;9.028;2022-09-01T01:39:13;14.30;;;13.00;;
8946;SDS011;4508;48.790;9.028;2022-09-01T01:41:43;15.10;;;13.80;;
8946;SDS011;4508;48.790;9.028;2022-09-01T01:44:13;14.35;;;13.07;;
8946;SDS011;4508;48.790;9.028;2022-09-01T01:46:43;13.93;;;12.63;;
8946;SDS011;4508;48.790;9.028;2022-09-01T01:49:17;14.95;;;13.55;;
8946;SDS011;4508;48.790;9.028;2022-09-01T01:51:45;16.75;;;15.15;;
8946;SDS011;4508;48.790;9.028;2022-09-01T01:54:13;15.88;;;14.38;;
8946;SDS011;4508;48.790;9.028;2022-09-01T01:56:44;15.70;;;14.30;;
8946;SDS011;4508;48.790;9.028;2022-09-01T01:59:11;15.50;;;14.10;;
8946;SDS011;4508;48.790;9.028;2022-09-01T02:01:38;15.87;;;13.50;;
8946;SDS011;4508;48.790;9.028;2022-09-01T02:04:07;14.88;;;13.48;;
8946;SDS011;4508;48.790;9.028;2022-09-01T02:06:35;13.85;;;12.65;;
8946;SDS011;4508;48.790;9.028;2022-09-01T02:09:06;14.38;;;13.02;;
8946;SDS011;4508;48.790;9.028;2022-09-01T02:11:33;13.07;;;11.77;;
8946;SDS011;4508;48.790;9.028;2022-09-01T02:14:03;12.57;;;11.38;;
8946;SDS011;4508;48.790;9.028;2022-09-01T02:16:31;14.75;;;13.35;;
8946;SDS011;4508;48.790;9.028;2022-09-01T02:19:00;15.33;;;13.93;;
8946;SDS011;4508;48.790;9.028;2022-09-01T02:21:31;15.60;;;14.20;;
8946;SDS011;4508;48.790;9.028;2022-09-01T02:23:59;15.35;;;13.93;;
8946;SDS011;4508;48.790;9.028;2022-09-01T02:26:29;16.00;;;14.50;;
8946;SDS011;4508;48.790;9.028;2022-09-01T02:28:58;15.87;;;14.37;;
8946;SDS011;4508;48.790;9.028;2022-09-01T02:48:05;14.90;;;13.60;;
8946;SDS011;4508;48.790;9.028;2022-09-01T02:50:33;15.30;;;13.90;;
8946;SDS011;4508;48.790;9.028;2022-09-01T02:59:44;13.82;;;12.52;;
8946;SDS011;4508;48.790;9.028;2022-09-01T03:02:11;12.80;;;11.70;;
8946;SDS011;4508;48.790;9.028;2022-09-01T03:04:39;13.30;;;12.05;;
8946;SDS011;4508;48.790;9.028;2022-09-01T03:13:41;12.90;;;11.70;;
8946;SDS011;4508;48.790;9.028;2022-09-01T03:16:08;12.75;;;11.65;;
8946;SDS011;4508;48.790;9.028;2022-09-01T03:35:28;14.65;;;13.27;;
8946;SDS011;4508;48.790;9.028;2022-09-01T03:37:56;13.55;;;12.23;;
8946;SDS011;4508;48.790;9.028;2022-09-01T03:40:24;14.27;;;13.02;;
8946;SDS011;4508;48.790;9.028;2022-09-01T03:42:51;13.95;;;12.73;;
8946;SDS011;4508;48.790;9.028;2022-09-01T03:45:19;13.55;;;12.25;;
8946;SDS011;4508;48.790;9.028;2022-09-01T03:47:49;13.60;;;12.30;;
8946;SDS011;4508;48.790;9.028;2022-09-01T03:50:18;13.90;;;12.70;;
8946;SDS011;4508;48.790;9.028;2022-09-01T03:52:47;14.00;;;12.73;;
8946;SDS011;4508;48.790;9.028;2022-09-01T03:55:18;16.08;;;14.68;;
8946;SDS011;4508;48.790;9.028;2022-09-01T03:57:50;16.15;;;14.65;;
8946;SDS011;4508;48.790;9.028;2022-09-01T04:00:18;15.73;;;14.25;;
8946;SDS011;4508;48.790;9.028;2022-09-01T04:02:49;15.63;;;14.25;;
8946;SDS011;4508;48.790;9.028;2022-09-01T04:05:17;15.30;;;13.90;;
8946;SDS011;4508;48.790;9.028;2022-09-01T04:07:48;14.98;;;13.52;;
8946;SDS011;4508;48.790;9.028;2022-09-01T04:10:15;16.02;;;14.45;;
8946;SDS011;4508;48.790;9.028;2022-09-01T04:12:44;16.38;;;14.98;;
8946;SDS011;4508;48.790;9.028;2022-09-01T04:15:11;17.63;;;16.07;;
8946;SDS011;4508;48.790;9.028;2022-09-01T04:17:39;20.73;;;18.87;;
8946;SDS011;4508;48.790;9.028;2022-09-01T04:20:23;19.88;;;17.98;;
8946;SDS011;4508;48.790;9.028;2022-09-01T04:22:51;18.90;;;17.00;;
8946;SDS011;4508;48.790;9.028;2022-09-01T04:25:19;21.13;;;19.17;;
8946;SDS011;4508;48.790;9.028;2022-09-01T04:27:47;21.02;;;18.92;;
8946;SDS011;4508;48.790;9.028;2022-09-01T04:30:14;18.60;;;16.90;;
8946;SDS011;4508;48.790;9.028;2022-09-01T04:32:41;18.35;;;16.75;;
8946;SDS011;4508;48.790;9.028;2022-09-01T04:35:10;17.67;;;15.98;;
8946;SDS011;4508;48.790;9.028;2022-09-01T04:37:40;17.33;;;15.70;;
8946;SDS011;4508;48.790;9.028;2022-09-01T04:40:09;16.35;;;14.85;;
8946;SDS011;4508;48.790;9.028;2022-09-01T04:42:38;17.65;;;16.00;;
8946;SDS011;4508;48.790;9.028;2022-09-01T04:45:07;17.08;;;15.48;;
8946;SDS011;4508;48.790;9.028;2022-09-01T04:47:38;18.48;;;16.58;;
8946;SDS011;4508;48.790;9.028;2022-09-01T04:50:06;20.23;;;18.25;;
8946;SDS011;4508;48.790;9.028;2022-09-01T04:52:38;19.20;;;17.30;;
8946;SDS011;4508;48.790;9.028;2022-09-01T04:55:06;22.25;;;17.17;;
8946;SDS011;4508;48.790;9.028;2022-09-01T04:57:42;19.02;;;17.02;;
8946;SDS011;4508;48.790;9.028;2022-09-01T05:00:12;19.05;;;17.45;;
8946;SDS011;4508;48.790;9.028;2022-09-01T05:02:46;18.73;;;17.02;;
8946;SDS011;4508;48.790;9.028;2022-09-01T05:05:16;17.70;;;16.20;;
8946;SDS011;4508;48.790;9.028;2022-09-01T05:07:44;17.40;;;15.90;;
8946;SDS011;4508;48.790;9.028;2022-09-01T05:10:16;17.67;;;16.17;;
8946;SDS011;4508;48.790;9.028;2022-09-01T05:12:45;17.15;;;15.75;;
8946;SDS011;4508;48.790;9.028;2022-09-01T05:15:12;17.15;;;15.70;;
8946;SDS011;4508;48.790;9.028;2022-09-01T05:17:39;16.83;;;15.37;;
8946;SDS011;4508;48.790;9.028;2022-09-01T05:20:07;17.05;;;15.55;;
8946;SDS011;4508;48.790;9.028;2022-09-01T05:22:36;15.75;;;14.43;;
8946;SDS011;4508;48.790;9.028;2022-09-01T05:25:05;16.30;;;14.90;;
8946;SDS011;4508;48.790;9.028;2022-09-01T05:27:37;16.23;;;14.73;;
8946;SDS011;4508;48.790;9.028;2022-09-01T05:30:07;15.88;;;14.43;;
8946;SDS011;4508;48.790;9.028;2022-09-01T05:32:34;16.10;;;14.60;;
8946;SDS011;4508;48.790;9.028;2022-09-01T05:35:04;15.73;;;14.38;;
8946;SDS011;4508;48.790;9.028;2022-09-01T05:37:33;15.40;;;14.10;;
8946;SDS011;4508;48.790;9.028;2022-09-01T05:40:01;14.93;;;13.73;;
8946;SDS011;4508;48.790;9.028;2022-09-01T05:42:29;14.70;;;13.48;;
8946;SDS011;4508;48.790;9.028;2022-09-01T05:44:56;15.33;;;14.00;;
8946;SDS011;4508;48.790;9.028;2022-09-01T05:47:25;15.43;;;14.02;;
8946;SDS011;4508;48.790;9.028;2022-09-01T05:49:52;15.30;;;13.95;;
8946;SDS011;4508;48.790;9.028;2022-09-01T05:52:20;15.27;;;13.77;;
8946;SDS011;4508;48.790;9.028;2022-09-01T05:54:50;15.30;;;13.93;;
8946;SDS011;4508;48.790;9.028;2022-09-01T05:57:17;15.30;;;13.90;;
8946;SDS011;4508;48.790;9.028;2022-09-01T05:59:44;15.32;;;13.82;;
8946;SDS011;4508;48.790;9.028;2022-09-01T06:02:17;16.23;;;14.83;;
8946;SDS011;4508;48.790;9.028;2022-09-01T06:04:47;15.97;;;14.43;;
8946;SDS011;4508;48.790;9.028;2022-09-01T06:07:14;16.02;;;14.63;;
8946;SDS011;4508;48.790;9.028;2022-09-01T06:09:43;13.70;;;12.60;;
8946;SDS011;4508;48.790;9.028;2022-09-01T06:12:12;14.30;;;13.00;;
8946;SDS011;4508;48.790;9.028;2022-09-01T06:14:42;14.00;;;12.80;;
8946;SDS011;4508;48.790;9.028;2022-09-01T06:17:09;14.95;;;13.65;;
8946;SDS011;4508;48.790;9.028;2022-09-01T06:19:40;15.07;;;13.77;;
8946;SDS011;4508;48.790;9.028;2022-09-01T06:22:08;14.90;;;13.60;;
8946;SDS011;4508;48.790;9.028;2022-09-01T06:24:35;16.00;;;14.52;;
8946;SDS011;4508;48.790;9.028;2022-09-01T06:27:04;15.63;;;14.23;;
8946;SDS011;4508;48.790;9.028;2022-09-01T06:29:33;15.27;;;13.98;;
8946;SDS011;4508;48.790;9.028;2022-09-01T06:32:03;15.70;;;14.40;;
8946;SDS011;4508;48.790;9.028;2022-09-01T06:34:34;15.75;;;14.45;;
8946;SDS011;4508;48.790;9.028;2022-09-01T06:37:01;15.65;;;14.25;;
8946;SDS011;4508;48.790;9.028;2022-09-01T06:39:29;15.68;;;14.38;;
8946;SDS011;4508;48.790;9.028;2022-09-01T06:41:58;15.68;;;14.38;;
8946;SDS011;4508;48.790;9.028;2022-09-01T06:44:25;15.77;;;14.40;;
8946;SDS011;4508;48.790;9.028;2022-09-01T06:46:51;15.30;;;14.00;;
8946;SDS011;4508;48.790;9.028;2022-09-01T06:49:19;14.80;;;13.50;;
8946;SDS011;4508;48.790;9.028;2022-09-01T06:51:56;13.90;;;12.60;;
8946;SDS011;4508;48.790;9.028;2022-09-01T06:54:23;13.85;;;12.65;;
8946;SDS011;4508;48.790;9.028;2022-09-01T06:56:51;13.98;;;12.77;;
8946;SDS011;4508;48.790;9.028;2022-09-01T06:59:18;14.50;;;13.23;;
8946;SDS011;4508;48.790;9.028;2022-09-01T07:01:45;14.20;;;12.90;;
8946;SDS011;4508;48.790;9.028;2022-09-01T07:04:13;14.23;;;13.02;;
8946;SDS011;4508;48.790;9.028;2022-09-01T07:06:41;14.30;;;13.00;;
8946;SDS011;4508;48.790;9.028;2022-09-01T07:09:08;14.87;;;13.57;;
8946;SDS011;4508;48.790;9.028;2022-09-01T07:11:36;14.07;;;12.87;;
8946;SDS011;4508;48.790;9.028;2022-09-01T07:14:05;15.00;;;13.70;;
8946;SDS011;4508;48.790;9.028;2022-09-01T07:16:33;14.80;;;13.45;;
8946;SDS011;4508;48.790;9.028;2022-09-01T07:19:01;14.85;;;13.63;;
8946;SDS011;4508;48.790;9.028;2022-09-01T07:21:30;14.32;;;13.02;;
8946;SDS011;4508;48.790;9.028;2022-09-01T07:23:58;13.90;;;12.70;;
8946;SDS011;4508;48.790;9.028;2022-09-01T07:26:28;14.10;;;12.90;;
8946;SDS011;4508;48.790;9.028;2022-09-01T07:28:55;13.75;;;12.55;;
8946;SDS011;4508;48.790;9.028;2022-09-01T07:31:25;13.63;;;12.50;;
8946;SDS011;4508;48.790;9.028;2022-09-01T07:33:55;13.40;;;12.25;;
8946;SDS011;4508;48.790;9.028;2022-09-01T07:36:24;12.95;;;11.80;;
8946;SDS011;4508;48.790;9.028;2022-09-01T07:38:51;12.93;;;11.80;;
8946;SDS011;4508;48.790;9.028;2022-09-01T07:41:19;12.35;;;11.25;;
8946;SDS011;4508;48.790;9.028;2022-09-01T07:43:47;11.32;;;10.43;;
8946;SDS011;4508;48.790;9.028;2022-09-01T07:46:16;11.93;;;10.93;;
8946;SDS011;4508;48.790;9.028;2022-09-01T07:52:07;11.57;;;10.57;;
8946;SDS011;4508;48.790;9.028;2022-09-01T08:01:33;11.77;;;10.77;;
8946;SDS011;4508;48.790;9.028;2022-09-01T08:04:00;11.15;;;10.23;;
8946;SDS011;4508;48.790;9.028;2022-09-01T08:19:56;11.40;;;10.30;;
8946;SDS011;4508;48.790;9.028;2022-09-01T08:25:44;10.77;;;9.77;;
8946;SDS011;4508;48.790;9.028;2022-09-01T08:34:41;9.38;;;8.57;;
8946;SDS011;4508;48.790;9.028;2022-09-01T08:37:09;9.10;;;8.30;;
8946;SDS011;4508;48.790;9.028;2022-09-01T08:46:03;8.67;;;7.87;;
8946;SDS011;4508;48.790;9.028;2022-09-01T08:48:38;8.60;;;7.88;;
8946;SDS011;4508;48.790;9.028;2022-09-01T08:51:11;8.63;;;7.82;;
8946;SDS011;4508;48.790;9.028;2022-09-01T08:53:46;8.38;;;7.68;;
8946;SDS011;4508;48.790;9.028;2022-09-01T08:56:18;9.05;;;8.25;;
8946;SDS011;4508;48.790;9.028;2022-09-01T08:58:44;8.40;;;7.70;;
8946;SDS011;4508;48.790;9.028;2022-09-01T09:01:14;8.38;;;7.63;;
8946;SDS011;4508;48.790;9.028;2022-09-01T09:03:55;8.13;;;7.43;;
8946;SDS011;4508;48.790;9.028;2022-09-01T09:06:40;7.95;;;7.32;;
8946;SDS011;4508;48.790;9.028;2022-09-01T09:09:16;7.80;;;7.10;;
8946;SDS011;4508;48.790;9.028;2022-09-01T09:11:56;7.10;;;6.45;;
8946;SDS011;4508;48.790;9.028;2022-09-01T09:14:46;7.57;;;6.88;;
8946;SDS011;4508;48.790;9.028;2022-09-01T09:17:28;6.70;;;6.10;;
8946;SDS011;4508;48.790;9.028;2022-09-01T09:19:58;6.30;;;5.80;;
8946;SDS011;4508;48.790;9.028;2022-09-01T09:22:26;6.40;;;5.80;;
8946;SDS011;4508;48.790;9.028;2022-09-01T09:24:56;6.78;;;6.18;;
8946;SDS011;4508;48.790;9.028;2022-09-01T09:27:28;6.50;;;6.00;;
8946;SDS011;4508;48.790;9.028;2022-09-01T09:29:57;5.93;;;5.40;;
8946;SDS011;4508;48.790;9.028;2022-09-01T09:32:40;6.50;;;5.90;;
8946;SDS011;4508;48.790;9.028;2022-09-01T09:35:16;5.77;;;5.27;;
8946;SDS011;4508;48.790;9.028;2022-09-01T09:37:48;5.68;;;5.18;;
8946;SDS011;4508;48.790;9.028;2022-09-01T09:40:17;5.60;;;5.10;;
8946;SDS011;4508;48.790;9.028;2022-09-01T09:45:34;5.30;;;4.80;;
8946;SDS011;4508;48.790;9.028;2022-09-01T09:48:06;5.10;;;4.70;;
8946;SDS011;4508;48.790;9.028;2022-09-01T09:50:36;5.30;;;4.82;;
8946;SDS011;4508;48.790;9.028;2022-09-01T09:53:14;5.40;;;4.90;;
8946;SDS011;4508;48.790;9.028;2022-09-01T09:55:52;5.43;;;4.87;;
8946;SDS011;4508;48.790;9.028;2022-09-01T09:58:23;5.03;;;4.63;;
8946;SDS011;4508;48.790;9.028;2022-09-01T10:01:01;4.97;;;4.57;;
8946;SDS011;4508;48.790;9.028;2022-09-01T10:03:35;5.20;;;4.70;;
8946;SDS011;4508;48.790;9.028;2022-09-01T10:06:04;5.13;;;4.63;;
8946;SDS011;4508;48.790;9.028;2022-09-01T10:08:37;5.50;;;5.00;;
8946;SDS011;4508;48.790;9.028;2022-09-01T10:11:10;5.20;;;4.70;;
8946;SDS011;4508;48.790;9.028;2022-09-01T10:13:50;5.15;;;4.75;;
8946;SDS011;4508;48.790;9.028;2022-09-01T10:16:18;5.20;;;4.80;;
8946;SDS011;4508;48.790;9.028;2022-09-01T10:18:50;5.80;;;5.20;;
8946;SDS011;4508;48.790;9.028;2022-09-01T10:21:25;5.50;;;5.00;;
8946;SDS011;4508;48.790;9.028;2022-09-01T10:23:57;5.35;;;4.85;;
8946;SDS011;4508;48.790;9.028;2022-09-01T10:26:27;5.10;;;4.70;;
8946;SDS011;4508;48.790;9.028;2022-09-01T10:28:58;4.65;;;4.10;;
8946;SDS011;4508;48.790;9.028;2022-09-01T10:31:31;4.70;;;4.30;;
8946;SDS011;4508;48.790;9.028;2022-09-01T10:34:00;4.70;;;4.30;;
8946;SDS011;4508;48.790;9.028;2022-09-01T10:36:28;4.30;;;3.90;;
8946;SDS011;4508;48.790;9.028;2022-09-01T10:38:56;4.57;;;3.95;;
8946;SDS011;4508;48.790;9.028;2022-09-01T10:44:17;4.00;;;3.60;;
8946;SDS011;4508;48.790;9.028;2022-09-01T10:46:47;3.63;;;3.33;;
8946;SDS011;4508;48.790;9.028;2022-09-01T10:49:19;3.65;;;3.35;;
8946;SDS011;4508;48.790;9.028;2022-09-01T10:52:08;3.10;;;2.80;;
8946;SDS011;4508;48.790;9.028;2022-09-01T10:54:52;3.80;;;3.50;;
8946;SDS011;4508;48.790;9.028;2022-09-01T10:57:33;3.97;;;3.55;;
8946;SDS011;4508;48.790;9.028;2022-09-01T11:09:18;3.38;;;3.00;;
8946;SDS011;4508;48.790;9.028;2022-09-01T11:12:11;3.67;;;3.38;;
8946;SDS011;4508;48.790;9.028;2022-09-01T11:14:49;3.40;;;3.10;;
8946;SDS011;4508;48.790;9.028;2022-09-01T11:17:19;3.45;;;3.15;;
8946;SDS011;4508;48.790;9.028;2022-09-01T11:20:02;3.10;;;2.90;;
8946;SDS011;4508;48.790;9.028;2022-09-01T11:22:33;3.17;;;2.88;;
8946;SDS011;4508;48.790;9.028;2022-09-01T11:28:09;2.78;;;2.50;;
8946;SDS011;4508;48.790;9.028;2022-09-01T11:30:59;2.70;;;2.50;;
8946;SDS011;4508;48.790;9.028;2022-09-01T11:33:35;2.60;;;2.40;;
8946;SDS011;4508;48.790;9.028;2022-09-01T11:36:11;2.80;;;2.50;;
8946;SDS011;4508;48.790;9.028;2022-09-01T11:38:44;2.78;;;2.58;;
8946;SDS011;4508;48.790;9.028;2022-09-01T11:41:24;2.70;;;2.50;;
8946;SDS011;4508;48.790;9.028;2022-09-01T11:43:58;2.58;;;2.38;;
8946;SDS011;4508;48.790;9.028;2022-09-01T11:46:28;2.72;;;2.53;;
8946;SDS011;4508;48.790;9.028;2022-09-01T11:48:57;3.00;;;2.80;;
8946;SDS011;4508;48.790;9.028;2022-09-01T11:51:34;3.08;;;2.78;;
8946;SDS011;4508;48.790;9.028;2022-09-01T11:54:05;3.10;;;2.80;;
8946;SDS011;4508;48.790;9.028;2022-09-01T11:56:34;2.90;;;2.70;;
8946;SDS011;4508;48.790;9.028;2022-09-01T11:59:00;3.10;;;2.90;;
8946;SDS011;4508;48.790;9.028;2022-09-01T12:01:30;3.15;;;2.92;;
8946;SDS011;4508;48.790;9.028;2022-09-01T12:06:50;3.30;;;3.05;;
8946;SDS011;4508;48.790;9.028;2022-09-01T12:09:20;2.90;;;2.70;;
8946;SDS011;4508;48.790;9.028;2022-09-01T12:11:48;3.00;;;2.80;;
8946;SDS011;4508;48.790;9.028;2022-09-01T12:14:20;3.10;;;2.80;;
8946;SDS011;4508;48.790;9.028;2022-09-01T12:16:55;2.60;;;2.40;;
8946;SDS011;4508;48.790;9.028;2022-09-01T12:19:25;2.58;;;2.38;;
8946;SDS011;4508;48.790;9.028;2022-09-01T12:21:55;2.90;;;2.60;;
8946;SDS011;4508;48.790;9.028;2022-09-01T12:24:25;2.70;;;2.50;;
8946;SDS011;4508;48.790;9.028;2022-09-01T12:26:53;2.92;;;2.60;;
8946;SDS011;4508;48.790;9.028;2022-09-01T12:29:23;2.40;;;2.20;;
8946;SDS011;4508;48.790;9.028;2022-09-01T12:31:50;2.60;;;2.40;;
8946;SDS011;4508;48.790;9.028;2022-09-01T12:34:35;2.53;;;2.30;;
8946;SDS011;4508;48.790;9.028;2022-09-01T12:37:08;2.60;;;2.20;;
8946;SDS011;4508;48.790;9.028;2022-09-01T12:39:37;2.40;;;2.20;;
8946;SDS011;4508;48.790;9.028;2022-09-01T12:42:08;2.40;;;2.20;;
8946;SDS011;4508;48.790;9.028;2022-09-01T12:44:42;2.50;;;2.30;;
8946;SDS011;4508;48.790;9.028;2022-09-01T12:47:13;2.53;;;2.33;;
8946;SDS011;4508;48.790;9.028;2022-09-01T12:50:07;2.67;;;2.47;;
8946;SDS011;4508;48.790;9.028;2022-09-01T12:52:55;2.70;;;2.50;;
8946;SDS011;4508;48.790;9.028;2022-09-01T12:55:24;2.88;;;2.50;;
8946;SDS011;4508;48.790;9.028;2022-09-01T12:57:52;3.63;;;2.58;;
8946;SDS011;4508;48.790;9.028;2022-09-01T13:00:21;2.70;;;2.50;;
8946;SDS011;4508;48.790;9.028;2022-09-01T13:02:50;2.65;;;2.45;;
8946;SDS011;4508;48.790;9.028;2022-09-01T13:05:30;2.67;;;2.47;;
8946;SDS011;4508;48.790;9.028;2022-09-01T13:32:36;2.63;;;2.40;;
8946;SDS011;4508;48.790;9.028;2022-09-01T13:35:03;3.20;;;2.40;;
8946;SDS011;4508;48.790;9.028;2022-09-01T13:37:30;2.80;;;2.47;;
8946;SDS011;4508;48.790;9.028;2022-09-01T13:39:57;2.80;;;2.60;;
8946;SDS011;4508;48.790;9.028;2022-09-01T13:42:25;2.78;;;2.58;;
8946;SDS011;4508;48.790;9.028;2022-09-01T13:44:52;2.45;;;2.25;;
8946;SDS011;4508;48.790;9.028;2022-09-01T13:47:18;2.30;;;2.20;;
8946;SDS011;4508;48.790;9.028;2022-09-01T13:49:45;2.80;;;2.60;;
8946;SDS011;4508;48.790;9.028;2022-09-01T13:52:12;2.65;;;2.45;;
8946;SDS011;4508;48.790;9.028;2022-09-01T13:54:39;3.20;;;2.30;;
8946;SDS011;4508;48.790;9.028;2022-09-01T13:57:08;2.80;;;2.30;;
8946;SDS011;4508;48.790;9.028;2022-09-01T13:59:36;2.58;;;2.38;;
8946;SDS011;4508;48.790;9.028;2022-09-01T14:02:06;2.43;;;2.23;;
8946;SDS011;4508;48.790;9.028;2022-09-01T14:04:32;2.30;;;2.10;;
8946;SDS011;4508;48.790;9.028;2022-09-01T14:06:59;2.33;;;2.17;;
8946;SDS011;4508;48.790;9.028;2022-09-01T14:09:26;2.25;;;2.10;;
8946;SDS011;4508;48.790;9.028;2022-09-01T14:11:53;2.30;;;2.10;;
8946;SDS011;4508;48.790;9.028;2022-09-01T14:14:21;2.10;;;2.00;;
8946;SDS011;4508;48.790;9.028;2022-09-01T14:16:49;2.10;;;2.00;;
8946;SDS011;4508;48.790;9.028;2022-09-01T14:19:16;2.30;;;2.10;;
8946;SDS011;4508;48.790;9.028;2022-09-01T14:21:43;2.40;;;2.20;;
8946;SDS011;4508;48.790;9.028;2022-09-01T14:24:11;2.38;;;2.17;;
8946;SDS011;4508;48.790;9.028;2022-09-01T14:26:39;2.30;;;2.10;;
8946;SDS011;4508;48.790;9.028;2022-09-01T14:29:06;2.30;;;2.10;;
8946;SDS011;4508;48.790;9.028;2022-09-01T14:31:33;2.40;;;2.20;;
8946;SDS011;4508;48.790;9.028;2022-09-01T14:34:03;2.30;;;2.10;;
8946;SDS011;4508;48.790;9.028;2022-09-01T14:36:30;2.20;;;2.10;;
8946;SDS011;4508;48.790;9.028;2022-09-01T14:38:57;2.28;;;2.05;;
8946;SDS011;4508;48.790;9.028;2022-09-01T14:41:24;2.33;;;2.00;;
8946;SDS011;4508;48.790;9.028;2022-09-01T14:43:51;2.43;;;1.93;;
8946;SDS011;4508;48.790;9.028;2022-09-01T14:46:19;2.20;;;2.00;;
8946;SDS011;4508;48.790;9.028;2022-09-01T14:48:47;2.47;;;2.20;;
8946;SDS011;4508;48.790;9.028;2022-09-01T14:51:19;2.00;;;1.90;;
8946;SDS011;4508;48.790;9.028;2022-09-01T14:53:48;1.90;;;1.80;;
8946;SDS011;4508;48.790;9.028;2022-09-01T14:56:16;2.10;;;1.90;;
8946;SDS011;4508;48.790;9.028;2022-09-01T14:58:43;2.25;;;2.05;;
8946;SDS011;4508;48.790;9.028;2022-09-01T15:01:11;2.10;;;2.00;;
8946;SDS011;4508;48.790;9.028;2022-09-01T15:03:38;2.97;;;2.20;;
8946;SDS011;4508;48.790;9.028;2022-09-01T15:06:06;2.33;;;2.15;;
8946;SDS011;4508;48.790;9.028;2022-09-01T15:08:34;2.90;;;2.40;;
8946;SDS011;4508;48.790;9.028;2022-09-01T15:11:01;2.50;;;2.30;;
8946;SDS011;4508;48.790;9.028;2022-09-01T15:13:27;2.40;;;2.20;;
8946;SDS011;4508;48.790;9.028;2022-09-01T15:15:54;2.37;;;2.13;;
8946;SDS011;4508;48.790;9.028;2022-09-01T15:18:21;2.00;;;1.90;;
8946;SDS011;4508;48.790;9.028;2022-09-01T15:20:48;2.10;;;1.90;;
8946;SDS011;4508;48.790;9.028;2022-09-01T15:23:15;2.00;;;1.80;;
8946;SDS011;4508;48.790;9.028;2022-09-01T15:25:45;2.63;;;1.90;;
8946;SDS011;4508;48.790;9.028;2022-09-01T15:28:12;2.20;;;2.00;;
8946;SDS011;4508;48.790;9.028;2022-09-01T15:30:39;1.90;;;1.80;;
8946;SDS011;4508;48.790;9.028;2022-09-01T15:33:08;1.92;;;1.83;;
8946;SDS011;4508;48.790;9.028;2022-09-01T15:35:35;1.92;;;1.83;;
8946;SDS011;4508;48.790;9.028;2022-09-01T15:38:02;2.00;;;1.80;;
8946;SDS011;4508;48.790;9.028;2022-09-01T15:40:31;1.83;;;1.73;;
8946;SDS011;4508;48.790;9.028;2022-09-01T15:42:59;1.88;;;1.70;;
8946;SDS011;4508;48.790;9.028;2022-09-01T15:45:26;1.70;;;1.60;;
8946;SDS011;4508;48.790;9.028;2022-09-01T15:47:53;2.25;;;1.80;;
8946;SDS011;4508;48.790;9.028;2022-09-01T15:50:21;2.30;;;1.83;;
8946;SDS011;4508;48.790;9.028;2022-09-01T15:52:50;3.08;;;1.60;;
8946;SDS011;4508;48.790;9.028;2022-09-01T15:55:19;1.80;;;1.70;;
8946;SDS011;4508;48.790;9.028;2022-09-01T15:57:48;2.33;;;1.90;;
8946;SDS011;4508;48.790;9.028;2022-09-01T16:00:17;2.23;;;1.80;;
8946;SDS011;4508;48.790;9.028;2022-09-01T16:02:44;2.03;;;1.90;;
8946;SDS011;4508;48.790;9.028;2022-09-01T16:05:11;2.05;;;1.85;;
8946;SDS011;4508;48.790;9.028;2022-09-01T16:07:38;2.17;;;1.95;;
8946;SDS011;4508;48.790;9.028;2022-09-01T16:10:06;1.90;;;1.80;;
8946;SDS011;4508;48.790;9.028;2022-09-01T16:12:36;2.20;;;2.00;;
8946;SDS011;4508;48.790;9.028;2022-09-01T16:15:03;2.00;;;1.90;;
8946;SDS011;4508;48.790;9.028;2022-09-01T16:17:37;2.33;;;1.90;;
8946;SDS011;4508;48.790;9.028;2022-09-01T16:20:11;2.05;;;1.90;;
8946;SDS011;4508;48.790;9.028;2022-09-01T16:22:45;2.10;;;2.00;;
8946;SDS011;4508;48.790;9.028;2022-09-01T16:25:17;2.67;;;2.00;;
8946;SDS011;4508;48.790;9.028;2022-09-01T16:27:54;2.20;;;2.00;;
8946;SDS011;4508;48.790;9.028;2022-09-01T16:30:23;2.00;;;1.80;;
8946;SDS011;4508;48.790;9.028;2022-09-01T16:32:55;2.00;;;1.90;;
8946;SDS011;4508;48.790;9.028;2022-09-01T16:35:24;3.03;;;2.13;;
8946;SDS011;4508;48.790;9.028;2022-09-01T16:38:02;3.20;;;2.00;;
8946;SDS011;4508;48.790;9.028;2022-09-01T16:40:40;2.95;;;2.03;;
8946;SDS011;4508;48.790;9.028;2022-09-01T16:43:13;2.70;;;2.00;;
8946;SDS011;4508;48.790;9.028;2022-09-01T16:45:46;2.15;;;1.98;;
8946;SDS011;4508;48.790;9.028;2022-09-01T16:48:20;2.35;;;2.00;;
8946;SDS011;4508;48.790;9.028;2022-09-01T16:50:55;2.83;;;2.20;;
8946;SDS011;4508;48.790;9.028;2022-09-01T16:53:31;2.85;;;2.00;;
8946;SDS011;4508;48.790;9.028;2022-09-01T16:56:10;2.30;;;2.10;;
8946;SDS011;4508;48.790;9.028;2022-09-01T16:58:41;2.20;;;2.00;;
8946;SDS011;4508;48.790;9.028;2022-09-01T17:01:19;2.28;;;2.08;;
8946;SDS011;4508;48.790;9.028;2022-09-01T17:03:58;2.27;;;2.07;;
8946;SDS011;4508;48.790;9.028;2022-09-01T17:06:39;2.03;;;1.92;;
8946;SDS011;4508;48.790;9.028;2022-09-01T17:09:15;2.78;;;2.40;;
8946;SDS011;4508;48.790;9.028;2022-09-01T17:11:48;2.53;;;2.22;;
8946;SDS011;4508;48.790;9.028;2022-09-01T17:14:18;2.25;;;2.05;;
8946;SDS011;4508;48.790;9.028;2022-09-01T17:16:49;2.45;;;2.15;;
8946;SDS011;4508;48.790;9.028;2022-09-01T17:19:21;2.80;;;2.30;;
8946;SDS011;4508;48.790;9.028;2022-09-01T17:21:52;2.33;;;2.13;;
8946;SDS011;4508;48.790;9.028;2022-09-01T17:24:26;2.47;;;2.28;;
8946;SDS011;4508;48.790;9.028;2022-09-01T17:27:00;3.20;;;2.20;;
8946;SDS011;4508;48.790;9.028;2022-09-01T17:29:33;2.30;;;2.10;;
8946;SDS011;4508;48.790;9.028;2022-09-01T17:32:07;2.30;;;2.20;;
8946;SDS011;4508;48.790;9.028;2022-09-01T17:34:45;2.40;;;2.20;;